Time;durP1;ratioP1;P1;durP2;ratioP2;P2;SDS_P1;SDS_P2;PMS_P1;PMS_P2;Temp;Humidity;BMP_temperature;BMP_pressure;BME280_temperature;BME280_humidity;BME280_pressure;Samples;Min_cycle;Max_cycle;Signal;HPM_P1;HPM_P2
2024/02/13 00:00:14;;;;;;;6.05;3.17;;;6.00;99.90;;;;;;5004678;28;20086;-66
2024/02/13 00:02:40;;;;;;;10.60;4.13;;;6.10;99.90;;;;;;5002499;28;20081;-66
2024/02/13 00:05:08;;;;;;;7.88;3.42;;;6.10;99.90;;;;;;5002328;28;20058;-66
2024/02/13 00:07:38;;;;;;;4.68;2.80;;;6.10;99.90;;;;;;4998198;28;20046;-66
2024/02/13 00:10:09;;;;;;;12.75;3.10;;;6.00;99.90;;;;;;5001309;28;20053;-66
2024/02/13 00:12:40;;;;;;;7.22;3.08;;;5.80;99.90;;;;;;5005680;28;20048;-66
2024/02/13 00:15:10;;;;;;;5.88;2.42;;;5.80;99.90;;;;;;5003803;28;20101;-66
2024/02/13 00:17:40;;;;;;;7.22;2.13;;;5.70;99.90;;;;;;4995477;28;20057;-66
2024/02/13 00:20:08;;;;;;;5.20;2.53;;;5.60;99.90;;;;;;4996493;28;20045;-66
2024/02/13 00:22:35;;;;;;;9.05;2.30;;;5.50;99.90;;;;;;5002472;28;20490;-66
2024/02/13 00:25:03;;;;;;;7.45;2.40;;;5.40;99.90;;;;;;4999809;28;20054;-65
2024/02/13 00:27:32;;;;;;;12.40;2.20;;;5.20;99.90;;;;;;4996649;28;20587;-65
2024/02/13 00:30:03;;;;;;;8.85;2.22;;;5.10;99.90;;;;;;4997246;28;20123;-65
2024/02/13 00:32:37;;;;;;;5.18;2.45;;;5.10;99.90;;;;;;4996321;28;20140;-65
2024/02/13 00:35:08;;;;;;;5.60;2.20;;;5.00;99.90;;;;;;4993294;28;20046;-65
2024/02/13 00:37:36;;;;;;;5.10;2.05;;;5.00;99.90;;;;;;4999909;28;20053;-65
2024/02/13 00:40:05;;;;;;;4.50;2.13;;;5.00;99.90;;;;;;5003030;28;20053;-65
2024/02/13 00:42:32;;;;;;;2.70;1.90;;;4.90;99.90;;;;;;4973007;28;20094;-66
2024/02/13 00:45:00;;;;;;;4.57;2.25;;;5.00;99.90;;;;;;4997105;28;20045;-66
2024/02/13 00:47:30;;;;;;;8.65;3.20;;;5.10;99.90;;;;;;4993932;28;20067;-65
2024/02/13 00:49:58;;;;;;;3.85;2.55;;;5.10;99.90;;;;;;4998380;28;20470;-65
2024/02/13 00:52:28;;;;;;;10.65;2.33;;;5.10;99.90;;;;;;5000372;28;20529;-66
2024/02/13 00:54:55;;;;;;;;;;;5.20;99.90;;;;;;5001413;28;20050;-66
2024/02/13 00:57:22;;;;;;;5.78;2.50;;;5.20;99.90;;;;;;5002185;28;20003;-66
2024/02/13 00:59:49;;;;;;;3.92;2.38;;;5.30;99.90;;;;;;5004707;28;20053;-66
2024/02/13 01:02:19;;;;;;;7.57;2.67;;;5.40;99.90;;;;;;4999924;28;20065;-65
2024/02/13 01:04:48;;;;;;;4.03;1.60;;;5.40;99.90;;;;;;4997509;28;20141;-66
2024/02/13 01:07:17;;;;;;;6.07;2.17;;;5.50;99.90;;;;;;4996809;28;20765;-66
2024/02/13 01:09:44;;;;;;;4.68;2.25;;;5.50;99.90;;;;;;4992379;28;20105;-66
2024/02/13 01:12:11;;;;;;;3.97;1.90;;;5.60;99.90;;;;;;4997523;28;20046;-66
2024/02/13 01:14:38;;;;;;;6.30;2.17;;;5.50;99.90;;;;;;4997951;28;20133;-66
2024/02/13 01:17:05;;;;;;;5.70;1.90;;;5.60;99.90;;;;;;4997534;28;20039;-66
2024/02/13 01:19:32;;;;;;;5.68;2.35;;;5.70;99.90;;;;;;4995232;28;20180;-66
2024/02/13 01:22:00;;;;;;;5.07;2.13;;;5.80;99.90;;;;;;4995370;28;20061;-66
2024/02/13 01:24:27;;;;;;;6.70;2.03;;;5.80;99.90;;;;;;4997535;28;20060;-66
2024/02/13 01:26:55;;;;;;;7.40;2.25;;;5.80;99.90;;;;;;5003074;28;20112;-65
2024/02/13 01:29:22;;;;;;;4.30;2.00;;;5.80;99.90;;;;;;4997001;28;20134;-66
2024/02/13 01:31:49;;;;;;;4.68;2.10;;;5.80;99.90;;;;;;4997802;28;20198;-66
2024/02/13 01:34:16;;;;;;;7.82;1.98;;;5.80;99.90;;;;;;4994737;28;20057;-65
2024/02/13 01:36:43;;;;;;;8.27;2.40;;;5.80;99.90;;;;;;4990410;28;20061;-66
2024/02/13 01:39:11;;;;;;;7.22;2.20;;;5.80;99.90;;;;;;5000051;28;20049;-65
2024/02/13 01:41:38;;;;;;;6.50;2.22;;;5.70;99.90;;;;;;4997958;28;20047;-65
2024/02/13 01:44:05;;;;;;;9.35;2.70;;;5.50;99.90;;;;;;4992877;28;20078;-65
2024/02/13 01:46:33;;;;;;;9.40;2.88;;;5.50;99.90;;;;;;4997230;28;20042;-65
2024/02/13 01:49:00;;;;;;;9.10;3.30;;;5.50;99.90;;;;;;4994955;28;20041;-65
2024/02/13 01:51:29;;;;;;;8.48;3.33;;;5.50;99.90;;;;;;4996650;28;20046;-65
2024/02/13 01:54:01;;;;;;;8.05;2.80;;;5.60;99.90;;;;;;4997595;28;20038;-66
2024/02/13 01:56:29;;;;;;;13.63;3.40;;;5.70;99.90;;;;;;4996443;28;20050;-65
2024/02/13 01:59:00;;;;;;;7.28;2.85;;;5.70;99.90;;;;;;4996873;28;20499;-65
2024/02/13 02:01:27;;;;;;;;;;;5.70;99.90;;;;;;4996921;28;20530;-66
2024/02/13 02:03:58;;;;;;;3.95;2.30;;;5.70;99.90;;;;;;4995727;28;20370;-65
2024/02/13 02:06:26;;;;;;;6.22;2.60;;;5.70;99.90;;;;;;4995324;28;20042;-65
2024/02/13 02:08:53;;;;;;;9.27;2.50;;;5.80;99.90;;;;;;4999924;28;20046;-65
2024/02/13 02:11:20;;;;;;;7.60;2.58;;;5.80;99.90;;;;;;5000833;28;20045;-65
2024/02/13 02:13:47;;;;;;;10.45;3.25;;;5.90;99.90;;;;;;5001112;28;20045;-66
2024/02/13 02:16:15;;;;;;;12.40;3.05;;;5.90;99.90;;;;;;4997682;28;20046;-65
2024/02/13 02:18:42;;;;;;;7.72;3.00;;;5.90;99.90;;;;;;4994919;28;20053;-65
2024/02/13 02:21:09;;;;;;;8.20;2.70;;;5.90;99.90;;;;;;5003612;28;20057;-65
2024/02/13 02:23:36;;;;;;;9.27;2.88;;;5.90;99.90;;;;;;4993060;28;20074;-65
2024/02/13 02:26:03;;;;;;;8.25;2.30;;;5.80;99.90;;;;;;4995801;28;20041;-64
2024/02/13 02:28:30;;;;;;;6.32;2.65;;;5.80;99.90;;;;;;4996307;28;20049;-65
2024/02/13 02:30:56;;;;;;;7.15;2.22;;;5.70;99.90;;;;;;4996843;28;20050;-64
2024/02/13 02:33:23;;;;;;;10.55;2.15;;;5.70;99.90;;;;;;4993442;28;20524;-64
2024/02/13 02:35:50;;;;;;;7.72;2.05;;;5.70;99.90;;;;;;4994199;28;20046;-64
2024/02/13 02:38:18;;;;;;;7.45;2.25;;;5.80;99.90;;;;;;4996825;28;20081;-64
2024/02/13 02:40:45;;;;;;;8.02;2.65;;;5.90;99.90;;;;;;4997253;28;20049;-64
2024/02/13 02:43:11;;;;;;;5.28;1.98;;;6.00;99.90;;;;;;4992529;28;20105;-64
2024/02/13 02:45:38;;;;;;;6.22;2.35;;;6.00;99.90;;;;;;4996949;28;20057;-64
2024/02/13 02:48:05;;;;;;;9.98;2.22;;;6.10;99.90;;;;;;4997607;28;20604;-65
2024/02/13 02:50:34;;;;;;;8.07;2.85;;;6.20;99.90;;;;;;4999025;28;20042;-64
2024/02/13 02:53:01;;;;;;;6.55;3.20;;;6.20;99.90;;;;;;4996379;28;20077;-64
2024/02/13 02:55:29;;;;;;;9.02;3.70;;;6.20;99.90;;;;;;4995700;28;20054;-64
2024/02/13 02:57:56;;;;;;;11.32;3.17;;;6.20;99.90;;;;;;4993709;28;20078;-64
2024/02/13 03:00:23;;;;;;;7.03;2.33;;;6.20;99.90;;;;;;4997534;28;20054;-64
2024/02/13 03:02:50;;;;;;;10.60;3.33;;;6.20;99.90;;;;;;4996802;28;20053;-64
2024/02/13 03:05:17;;;;;;;6.68;2.30;;;6.20;99.90;;;;;;4990710;28;20058;-64
2024/02/13 03:07:45;;;;;;;4.65;2.22;;;6.10;99.90;;;;;;4993474;28;20132;-65
2024/02/13 03:10:13;;;;;;;5.72;2.47;;;6.20;99.90;;;;;;4997229;28;20079;-65
2024/02/13 03:12:40;;;;;;;6.45;2.25;;;6.10;99.90;;;;;;4989674;28;20050;-64
2024/02/13 03:15:07;;;;;;;4.85;2.20;;;6.10;99.90;;;;;;4994377;28;20094;-65
2024/02/13 03:17:37;;;;;;;7.38;2.20;;;6.00;99.90;;;;;;4995961;28;20042;-65
2024/02/13 03:20:07;;;;;;;9.45;2.78;;;6.00;99.90;;;;;;4992943;28;20038;-65
2024/02/13 03:22:36;;;;;;;6.95;2.67;;;5.90;99.90;;;;;;4998957;28;20500;-65
2024/02/13 03:25:04;;;;;;;7.28;1.95;;;5.90;99.90;;;;;;4996130;28;20050;-65
2024/02/13 03:27:31;;;;;;;6.57;3.53;;;5.80;99.90;;;;;;4991936;28;20097;-64
2024/02/13 03:29:58;;;;;;;8.25;2.25;;;5.70;99.90;;;;;;4977329;28;20098;-65
2024/02/13 03:32:25;;;;;;;7.47;2.33;;;5.70;99.90;;;;;;4996548;28;21098;-64
2024/02/13 03:34:53;;;;;;;4.85;2.30;;;5.60;99.90;;;;;;4998221;28;20399;-65
2024/02/13 03:37:20;;;;;;;10.13;2.42;;;5.60;99.90;;;;;;4999687;28;20104;-65
2024/02/13 03:39:47;;;;;;;6.50;2.25;;;5.60;99.90;;;;;;4999477;28;20050;-65
2024/02/13 03:42:15;;;;;;;6.93;2.78;;;5.60;99.90;;;;;;4997586;28;20046;-65
2024/02/13 03:44:43;;;;;;;7.90;1.92;;;5.60;99.90;;;;;;4999014;28;20050;-65
2024/02/13 03:47:10;;;;;;;3.53;2.17;;;5.60;99.90;;;;;;4997076;28;20129;-65
2024/02/13 03:49:37;;;;;;;8.40;2.58;;;5.50;99.90;;;;;;4994719;28;20132;-65
2024/02/13 03:52:04;;;;;;;10.88;2.33;;;5.60;99.90;;;;;;4996717;28;20054;-65
2024/02/13 03:54:30;;;;;;;6.75;2.25;;;5.70;99.90;;;;;;4993836;28;20046;-65
2024/02/13 03:57:00;;;;;;;6.50;3.00;;;5.70;99.90;;;;;;5000015;28;20050;-65
2024/02/13 03:59:29;;;;;;;3.40;2.22;;;5.80;99.90;;;;;;4995822;28;20050;-64
2024/02/13 04:01:56;;;;;;;7.88;2.95;;;5.90;99.90;;;;;;4991746;28;20485;-64
2024/02/13 04:04:23;;;;;;;9.40;2.72;;;5.90;99.90;;;;;;4998047;28;20060;-65
2024/02/13 04:06:50;;;;;;;6.40;1.77;;;5.90;99.90;;;;;;4998703;28;20046;-65
2024/02/13 04:09:17;;;;;;;5.88;2.17;;;5.90;99.90;;;;;;4997536;28;20145;-65
2024/02/13 04:11:45;;;;;;;11.05;2.95;;;5.90;99.90;;;;;;4995845;28;20050;-64
2024/02/13 04:14:13;;;;;;;5.22;2.17;;;5.80;99.90;;;;;;4996948;28;20474;-65
2024/02/13 04:16:41;;;;;;;6.28;1.88;;;5.70;99.90;;;;;;4997311;28;20057;-65
2024/02/13 04:19:08;;;;;;;6.18;2.60;;;5.70;99.90;;;;;;4999375;28;20054;-65
2024/02/13 04:21:35;;;;;;;6.72;2.22;;;5.60;99.90;;;;;;4997426;28;20050;-64
2024/02/13 04:24:02;;;;;;;6.20;2.35;;;5.60;99.90;;;;;;4994754;28;20074;-64
2024/02/13 04:26:29;;;;;;;4.78;1.98;;;5.50;99.90;;;;;;4993682;28;20050;-65
2024/02/13 04:29:03;;;;;;;8.48;2.85;;;5.40;99.90;;;;;;5003257;28;20052;-65
2024/02/13 04:31:30;;;;;;;9.98;1.98;;;5.30;99.90;;;;;;4998168;28;20625;-65
2024/02/13 04:33:57;;;;;;;6.38;2.30;;;5.20;99.90;;;;;;5001070;28;20093;-65
2024/02/13 04:36:24;;;;;;;4.97;2.00;;;5.20;99.90;;;;;;4999983;28;20398;-65
2024/02/13 04:38:51;;;;;;;6.07;2.40;;;5.10;99.90;;;;;;5005653;28;20050;-66
2024/02/13 04:41:20;;;;;;;9.70;3.17;;;5.10;99.90;;;;;;4977514;28;20499;-65
2024/02/13 04:43:47;;;;;;;5.65;2.00;;;5.10;99.90;;;;;;5003900;28;20050;-65
2024/02/13 04:46:14;;;;;;;5.72;2.35;;;5.10;99.90;;;;;;4998241;28;20681;-65
2024/02/13 04:48:41;;;;;;;9.52;3.70;;;5.10;99.90;;;;;;5001506;28;20150;-65
2024/02/13 04:51:08;;;;;;;8.75;3.03;;;5.00;99.90;;;;;;4983022;28;20654;-65
2024/02/13 04:53:37;;;;;;;10.15;3.00;;;5.00;99.90;;;;;;4998095;28;20414;-65
2024/02/13 04:56:04;;;;;;;8.57;3.78;;;5.00;99.90;;;;;;5002189;28;20046;-65
2024/02/13 04:58:32;;;;;;;11.68;3.22;;;5.00;99.90;;;;;;4996461;28;20058;-65
2024/02/13 05:01:02;;;;;;;8.13;2.50;;;4.90;99.90;;;;;;4995879;28;20054;-65
2024/02/13 05:03:41;;;;;;;8.85;2.78;;;4.90;99.90;;;;;;4996635;28;20046;-66
2024/02/13 05:08:55;;;;;;;3.63;1.90;;;5.00;99.90;;;;;;4999614;28;20494;-65
2024/02/13 05:11:23;;;;;;;6.53;2.25;;;5.00;99.90;;;;;;4999223;28;20132;-65
2024/02/13 05:13:51;;;;;;;5.53;2.42;;;5.00;99.90;;;;;;4998163;28;20061;-65
2024/02/13 05:16:18;;;;;;;7.40;2.25;;;5.00;99.90;;;;;;4998327;28;20056;-65
2024/02/13 05:18:46;;;;;;;6.78;2.70;;;5.00;99.90;;;;;;4993921;28;20045;-65
2024/02/13 05:21:19;;;;;;;7.28;2.05;;;5.00;99.90;;;;;;4998074;28;20055;-66
2024/02/13 05:23:48;;;;;;;5.38;2.00;;;5.00;99.90;;;;;;4998964;28;20100;-65
2024/02/13 05:26:17;;;;;;;;;;;4.90;99.90;;;;;;4998736;28;20092;-66
2024/02/13 05:28:44;;;;;;;8.88;2.50;;;4.90;99.90;;;;;;4996891;28;19922;-66
2024/02/13 05:31:11;;;;;;;7.70;2.45;;;4.90;99.90;;;;;;4993544;28;20200;-65
2024/02/13 05:33:39;;;;;;;6.35;3.00;;;5.00;99.90;;;;;;4999553;28;20050;-65
2024/02/13 05:36:09;;;;;;;6.25;2.42;;;4.90;99.90;;;;;;4994703;28;20049;-66
2024/02/13 05:38:40;;;;;;;;;;;4.90;99.90;;;;;;4991424;28;20050;-65
2024/02/13 05:41:06;;;;;;;5.43;1.85;;;4.80;99.90;;;;;;4999023;28;20364;-66
2024/02/13 05:43:33;;;;;;;14.00;2.38;;;4.70;99.90;;;;;;5001926;28;20061;-66
2024/02/13 05:46:00;;;;;;;8.95;2.30;;;4.70;99.90;;;;;;5000367;28;20137;-65
2024/02/13 05:48:27;;;;;;;8.25;2.03;;;4.70;99.90;;;;;;5000874;28;20050;-65
2024/02/13 05:50:54;;;;;;;5.20;1.67;;;4.70;99.90;;;;;;4999243;28;20112;-66
2024/02/13 05:53:21;;;;;;;5.00;2.13;;;4.80;99.90;;;;;;5002485;28;20698;-66
2024/02/13 05:55:49;;;;;;;5.22;2.00;;;4.80;99.90;;;;;;4998870;28;20462;-66
2024/02/13 05:58:16;;;;;;;6.47;1.80;;;4.80;99.90;;;;;;4995340;28;20461;-65
2024/02/13 06:00:42;;;;;;;6.85;2.28;;;4.90;99.90;;;;;;4999258;28;20130;-65
2024/02/13 06:03:11;;;;;;;9.38;2.15;;;4.90;99.90;;;;;;5001493;28;20073;-65
2024/02/13 06:05:38;;;;;;;9.20;2.13;;;4.90;99.90;;;;;;4995645;28;20137;-66
2024/02/13 06:08:06;;;;;;;5.07;1.65;;;4.90;99.90;;;;;;4997393;28;20054;-66
2024/02/13 06:10:34;;;;;;;4.55;2.03;;;4.80;99.90;;;;;;4998830;28;20042;-66
2024/02/13 06:13:01;;;;;;;3.95;1.85;;;4.80;99.90;;;;;;4997878;28;20129;-65
2024/02/13 06:15:28;;;;;;;3.65;1.90;;;4.70;99.90;;;;;;4994771;28;20066;-66
2024/02/13 06:17:54;;;;;;;9.07;2.25;;;4.60;99.90;;;;;;4989121;28;20073;-66
2024/02/13 06:20:22;;;;;;;8.63;1.83;;;4.70;99.90;;;;;;4994428;28;20054;-66
2024/02/13 06:22:49;;;;;;;6.82;1.92;;;4.70;99.90;;;;;;4997593;28;20166;-66
2024/02/13 06:25:16;;;;;;;9.20;2.15;;;4.70;99.90;;;;;;4994972;28;20593;-66
2024/02/13 06:27:43;;;;;;;3.40;1.80;;;4.60;99.90;;;;;;5002105;28;20088;-65
2024/02/13 06:30:10;;;;;;;4.90;1.75;;;4.60;99.90;;;;;;5005074;28;20395;-65
2024/02/13 06:32:37;;;;;;;6.80;2.47;;;4.60;99.90;;;;;;5001604;28;20063;-66
2024/02/13 06:35:04;;;;;;;5.97;1.80;;;4.60;99.90;;;;;;4996897;28;20057;-66
2024/02/13 06:37:32;;;;;;;14.10;2.22;;;4.60;99.90;;;;;;5004203;28;20113;-66
2024/02/13 06:39:59;;;;;;;6.55;1.75;;;4.60;99.90;;;;;;4994970;28;20589;-65
2024/02/13 06:42:26;;;;;;;6.13;1.95;;;4.50;99.90;;;;;;4995838;28;20049;-66
2024/02/13 06:44:52;;;;;;;7.68;2.92;;;4.50;99.90;;;;;;5002043;28;20588;-65
2024/02/13 06:47:19;;;;;;;7.22;1.63;;;4.50;99.90;;;;;;4996658;28;20060;-66
2024/02/13 06:49:46;;;;;;;4.78;1.63;;;4.50;99.90;;;;;;4993969;28;20042;-66
2024/02/13 06:52:13;;;;;;;12.85;2.05;;;4.60;99.90;;;;;;5004602;28;20054;-65
2024/02/13 06:54:41;;;;;;;7.68;1.80;;;4.60;99.90;;;;;;4997509;28;20565;-66
2024/02/13 06:57:07;;;;;;;6.47;1.80;;;4.70;99.90;;;;;;5000725;28;20096;-66
2024/02/13 06:59:34;;;;;;;7.22;1.70;;;4.70;99.90;;;;;;5005081;28;20498;-66
2024/02/13 07:02:01;;;;;;;5.47;1.80;;;4.70;99.90;;;;;;4993863;28;20046;-65
2024/02/13 07:04:29;;;;;;;8.95;2.08;;;4.70;99.90;;;;;;4997753;28;20049;-66
2024/02/13 07:06:57;;;;;;;7.38;2.00;;;4.80;99.90;;;;;;4997192;28;20515;-65
2024/02/13 07:09:46;;;;;;;4.80;1.80;;;4.70;99.90;;;;;;5001630;28;20050;-65
2024/02/13 07:12:13;;;;;;;7.72;1.65;;;4.70;99.90;;;;;;4996686;28;20078;-65
2024/02/13 07:14:40;;;;;;;9.68;2.05;;;4.70;99.90;;;;;;5003916;28;20478;-65
2024/02/13 07:17:08;;;;;;;8.55;2.00;;;4.70;99.90;;;;;;4996392;28;20050;-65
2024/02/13 07:19:35;;;;;;;6.78;2.30;;;4.70;99.90;;;;;;5004333;28;20058;-65
2024/02/13 07:22:02;;;;;;;8.82;2.60;;;4.60;99.90;;;;;;5001499;28;20046;-66
2024/02/13 07:24:29;;;;;;;10.18;3.65;;;4.60;99.90;;;;;;4999167;28;20054;-65
2024/02/13 07:26:57;;;;;;;13.85;3.08;;;4.60;99.90;;;;;;5005604;28;20049;-65
2024/02/13 07:29:27;;;;;;;13.75;3.78;;;4.50;99.90;;;;;;5005394;28;20052;-65
2024/02/13 07:31:54;;;;;;;10.90;4.90;;;4.60;99.90;;;;;;5002889;28;20038;-65
2024/02/13 07:34:21;;;;;;;8.07;4.75;;;4.50;99.90;;;;;;4996930;28;20063;-65
2024/02/13 07:36:48;;;;;;;11.27;4.25;;;4.50;99.90;;;;;;4999644;28;20046;-65
2024/02/13 07:39:15;;;;;;;12.65;4.63;;;4.50;99.90;;;;;;5001394;28;20058;-64
2024/02/13 07:41:43;;;;;;;10.48;3.08;;;4.50;99.90;;;;;;4990330;28;20061;-65
2024/02/13 07:44:10;;;;;;;9.68;2.90;;;4.50;99.90;;;;;;4996561;28;20458;-65
2024/02/13 07:46:38;;;;;;;12.55;3.45;;;4.50;99.90;;;;;;4999073;28;20047;-65
2024/02/13 07:49:05;;;;;;;3.75;2.20;;;4.60;99.90;;;;;;4995654;28;20039;-65
2024/02/13 07:51:32;;;;;;;7.95;2.72;;;4.60;99.90;;;;;;5005115;28;20061;-65
2024/02/13 07:53:59;;;;;;;8.75;2.22;;;4.70;99.90;;;;;;4992753;28;20134;-65
2024/02/13 07:56:28;;;;;;;7.07;2.58;;;4.80;99.90;;;;;;4996728;28;20139;-67
2024/02/13 07:58:59;;;;;;;5.53;1.58;;;4.90;99.90;;;;;;4995743;28;20096;-65
2024/02/13 08:01:29;;;;;;;10.63;2.10;;;4.90;99.90;;;;;;5003543;28;20045;-65
2024/02/13 08:03:56;;;;;;;10.30;1.88;;;5.00;99.90;;;;;;5000751;28;20411;-65
2024/02/13 08:06:23;;;;;;;6.47;1.88;;;5.10;99.90;;;;;;5003901;28;20046;-65
2024/02/13 08:08:50;;;;;;;12.55;2.08;;;5.20;99.90;;;;;;5002977;28;20065;-65
2024/02/13 08:11:17;;;;;;;8.57;1.52;;;5.30;99.90;;;;;;5000549;28;20054;-65
2024/02/13 08:13:44;;;;;;;10.50;2.30;;;5.40;99.90;;;;;;5003047;28;20062;-64
2024/02/13 08:16:14;;;;;;;9.45;2.17;;;5.50;99.90;;;;;;5004351;28;20042;-65
2024/02/13 08:18:40;;;;;;;13.77;2.42;;;5.60;99.90;;;;;;4992701;28;20152;-65
2024/02/13 08:21:07;;;;;;;9.45;1.92;;;5.70;99.90;;;;;;5003443;28;20404;-65
2024/02/13 08:23:34;;;;;;;13.10;2.63;;;5.80;99.90;;;;;;4997423;28;20042;-65
2024/02/13 08:26:01;;;;;;;10.82;1.92;;;5.90;99.90;;;;;;4998576;28;20046;-65
2024/02/13 08:28:28;;;;;;;12.90;1.80;;;6.00;99.90;;;;;;5000515;28;20069;-65
2024/02/13 08:30:55;;;;;;;10.35;2.13;;;6.10;99.90;;;;;;5002009;28;20046;-65
2024/02/13 08:33:22;;;;;;;10.82;2.47;;;6.20;99.90;;;;;;4999686;28;20445;-65
2024/02/13 08:35:52;;;;;;;12.15;1.67;;;6.20;99.90;;;;;;5001742;28;20146;-65
2024/02/13 08:38:20;;;;;;;7.38;1.70;;;6.30;99.90;;;;;;4999233;28;20050;-65
2024/02/13 08:40:47;;;;;;;9.63;1.70;;;6.30;99.90;;;;;;5000249;28;20443;-65
2024/02/13 08:43:13;;;;;;;10.00;1.63;;;6.30;99.90;;;;;;5000709;28;20046;-65
2024/02/13 08:45:40;;;;;;;9.20;2.10;;;6.40;99.90;;;;;;4997981;28;20046;-64
2024/02/13 08:48:07;;;;;;;7.85;1.73;;;6.40;99.90;;;;;;4998490;28;20137;-65
2024/02/13 08:50:34;;;;;;;11.77;1.83;;;6.50;99.90;;;;;;5001452;28;20061;-64
2024/02/13 08:53:01;;;;;;;14.05;2.13;;;6.50;99.90;;;;;;4997423;28;20581;-67
2024/02/13 08:55:28;;;;;;;11.23;2.22;;;6.60;99.90;;;;;;5001319;28;20050;-67
2024/02/13 08:57:56;;;;;;;13.10;2.17;;;6.70;99.90;;;;;;4997916;28;20097;-67
2024/02/13 09:00:23;;;;;;;12.15;2.08;;;6.80;99.90;;;;;;5000583;28;20070;-67
2024/02/13 09:02:50;;;;;;;9.20;2.10;;;6.80;99.90;;;;;;5000822;28;20053;-67
2024/02/13 09:05:17;;;;;;;6.65;1.70;;;6.90;99.90;;;;;;4999083;28;20054;-67
2024/02/13 09:07:43;;;;;;;13.80;2.53;;;6.90;99.90;;;;;;4998661;28;20462;-67
2024/02/13 09:10:12;;;;;;;6.75;1.52;;;6.90;99.90;;;;;;4998417;28;20416;-67
2024/02/13 09:12:39;;;;;;;3.50;1.70;;;7.00;99.90;;;;;;5004026;28;20046;-67
2024/02/13 09:15:11;;;;;;;9.07;3.00;;;7.00;99.90;;;;;;5001507;28;20077;-66
2024/02/13 09:17:45;;;;;;;8.65;1.63;;;7.10;99.90;;;;;;5003184;28;20049;-67
2024/02/13 09:20:14;;;;;;;8.80;1.70;;;7.10;99.90;;;;;;4981812;28;20109;-67
2024/02/13 09:22:44;;;;;;;6.68;1.77;;;7.10;99.90;;;;;;5002991;28;20054;-66
2024/02/13 09:25:12;;;;;;;8.55;1.58;;;7.20;99.90;;;;;;4998943;28;20594;-67
2024/02/13 09:27:40;;;;;;;5.20;1.73;;;7.20;99.90;;;;;;5000527;28;20049;-67
2024/02/13 09:30:10;;;;;;;9.45;2.15;;;7.30;99.90;;;;;;4999933;28;20125;-67
2024/02/13 09:32:37;;;;;;;12.82;2.30;;;7.40;99.90;;;;;;5002222;28;20054;-67
2024/02/13 09:35:04;;;;;;;5.47;1.73;;;7.40;99.90;;;;;;5003321;28;20038;-66
2024/02/13 09:37:31;;;;;;;10.32;1.88;;;7.50;99.90;;;;;;4997856;28;20057;-66
2024/02/13 09:39:59;;;;;;;11.50;1.65;;;7.50;99.90;;;;;;4999360;28;20414;-65
2024/02/13 09:42:27;;;;;;;7.22;1.85;;;7.50;99.90;;;;;;5003501;28;20057;-64
2024/02/13 09:44:53;;;;;;;4.90;1.50;;;7.50;99.90;;;;;;4997729;28;20617;-65
2024/02/13 09:47:21;;;;;;;9.82;1.92;;;7.60;99.90;;;;;;4982566;28;20104;-65
2024/02/13 09:49:49;;;;;;;8.65;1.83;;;7.60;99.90;;;;;;5001691;28;20042;-65
2024/02/13 09:52:19;;;;;;;10.85;1.90;;;7.60;99.90;;;;;;5003867;28;20605;-65
2024/02/13 09:54:47;;;;;;;6.03;1.70;;;7.70;99.90;;;;;;4997476;28;20049;-65
2024/02/13 09:57:15;;;;;;;7.00;1.33;;;7.70;99.90;;;;;;5001437;28;20317;-65
2024/02/13 09:59:43;;;;;;;7.60;1.38;;;7.70;99.90;;;;;;5002226;28;20058;-65
2024/02/13 10:02:10;;;;;;;12.10;1.98;;;7.70;99.90;;;;;;5000599;28;20049;-65
2024/02/13 10:04:39;;;;;;;7.82;1.80;;;7.70;99.90;;;;;;5002755;28;20054;-65
2024/02/13 10:07:06;;;;;;;10.15;1.80;;;7.80;99.90;;;;;;4996953;28;20046;-65
2024/02/13 10:09:33;;;;;;;5.63;1.65;;;7.80;99.90;;;;;;5002073;28;20137;-64
2024/02/13 10:12:13;;;;;;;6.60;1.60;;;7.90;99.90;;;;;;4997296;28;20042;-65
2024/02/13 10:14:40;;;;;;;6.40;1.67;;;7.90;99.90;;;;;;4998891;28;20073;-65
2024/02/13 10:17:11;;;;;;;5.35;1.80;;;8.00;99.90;;;;;;5003711;28;20046;-65
2024/02/13 10:19:38;;;;;;;6.15;1.80;;;8.00;99.90;;;;;;4995923;28;20065;-65
2024/02/13 10:22:06;;;;;;;11.32;2.20;;;8.00;99.90;;;;;;4996980;28;20054;-65
2024/02/13 10:24:32;;;;;;;7.30;1.80;;;8.10;99.90;;;;;;4996692;28;20569;-65
2024/02/13 10:26:59;;;;;;;10.73;2.15;;;8.10;99.90;;;;;;4997758;28;20423;-65
2024/02/13 10:29:26;;;;;;;6.45;1.70;;;8.10;99.90;;;;;;4998203;28;20078;-65
2024/02/13 10:32:05;;;;;;;12.30;2.13;;;8.10;99.90;;;;;;5001995;28;20470;-64
2024/02/13 10:34:36;;;;;;;8.57;1.70;;;8.20;99.90;;;;;;4992749;28;20054;-65
2024/02/13 10:37:08;;;;;;;10.95;1.63;;;8.30;99.90;;;;;;5007899;28;20178;-66
2024/02/13 10:39:36;;;;;;;4.68;1.45;;;8.30;99.90;;;;;;4999434;28;20057;-66
2024/02/13 10:42:08;;;;;;;8.40;1.73;;;8.30;99.90;;;;;;5002847;28;20069;-66
2024/02/13 10:44:41;;;;;;;5.68;1.48;;;8.40;99.90;;;;;;4997526;28;20050;-66
2024/02/13 10:47:12;;;;;;;5.68;1.38;;;8.40;99.90;;;;;;5004602;28;20402;-65
2024/02/13 10:49:52;;;;;;;7.20;1.92;;;8.40;99.90;;;;;;4995845;28;20058;-65
2024/02/13 10:52:23;;;;;;;10.40;2.28;;;8.40;99.90;;;;;;4997307;28;20116;-66
2024/02/13 10:54:51;;;;;;;7.82;2.17;;;8.50;99.90;;;;;;5001248;28;20434;-65
2024/02/13 10:57:18;;;;;;;7.47;1.50;;;8.60;99.90;;;;;;5001523;28;20132;-65
2024/02/13 10:59:46;;;;;;;6.50;1.48;;;8.60;99.90;;;;;;5002022;28;20046;-65
2024/02/13 11:02:14;;;;;;;6.93;2.03;;;8.60;99.90;;;;;;5002851;28;20097;-65
2024/02/13 11:04:43;;;;;;;7.28;1.80;;;8.70;99.90;;;;;;5001528;28;20107;-65
2024/02/13 11:07:11;;;;;;;6.57;1.70;;;8.70;99.90;;;;;;5001215;28;20128;-65
2024/02/13 11:09:38;;;;;;;9.57;2.00;;;8.80;99.90;;;;;;5003351;28;20049;-65
2024/02/13 11:12:05;;;;;;;4.90;2.00;;;8.80;99.90;;;;;;4999070;28;20045;-65
2024/02/13 11:14:32;;;;;;;7.07;1.60;;;8.80;99.90;;;;;;5002578;28;20245;-65
2024/02/13 11:17:02;;;;;;;6.35;1.83;;;8.80;99.90;;;;;;4999949;28;20042;-65
2024/02/13 11:19:37;;;;;;;5.07;1.67;;;8.80;99.90;;;;;;5003184;28;20053;-65
2024/02/13 11:22:09;;;;;;;6.78;2.58;;;8.80;99.90;;;;;;4999097;28;20085;-65
2024/02/13 11:24:48;;;;;;;7.68;1.88;;;8.90;99.90;;;;;;4995617;28;20105;-65
2024/02/13 11:27:17;;;;;;;6.25;1.90;;;8.90;99.90;;;;;;4997996;28;20046;-65
2024/02/13 11:29:59;;;;;;;9.88;1.90;;;9.00;99.90;;;;;;5001123;28;20597;-64
2024/02/13 11:32:33;;;;;;;5.95;1.85;;;9.00;99.90;;;;;;4999990;28;20073;-64
2024/02/13 11:35:01;;;;;;;8.23;2.03;;;9.00;99.90;;;;;;4998028;28;20049;-65
2024/02/13 11:37:28;;;;;;;7.35;1.90;;;9.10;99.90;;;;;;5004133;28;20132;-66
2024/02/13 11:39:57;;;;;;;9.18;2.22;;;9.10;99.90;;;;;;4992497;28;20046;-66
2024/02/13 11:42:32;;;;;;;4.25;1.50;;;9.20;99.90;;;;;;4995707;28;20046;-66
2024/02/13 11:45:05;;;;;;;7.70;1.75;;;9.20;99.90;;;;;;4994818;28;20060;-66
2024/02/13 11:47:33;;;;;;;6.03;1.25;;;9.30;99.90;;;;;;4998550;28;20048;-66
2024/02/13 11:49:59;;;;;;;6.68;1.60;;;9.30;99.90;;;;;;4997536;28;20434;-67
2024/02/13 11:52:26;;;;;;;4.57;1.48;;;9.30;99.90;;;;;;4999710;28;20491;-66
2024/02/13 11:54:54;;;;;;;6.40;1.95;;;9.30;99.90;;;;;;5003006;28;20177;-66
2024/02/13 11:57:24;;;;;;;6.93;1.50;;;9.40;99.90;;;;;;4994472;28;20053;-66
2024/02/13 11:59:59;;;;;;;4.88;1.60;;;9.50;99.90;;;;;;5002039;28;20046;-66
2024/02/13 12:02:28;;;;;;;3.65;1.30;;;9.50;99.90;;;;;;5003295;28;20085;-66
2024/02/13 12:04:55;;;;;;;6.40;1.67;;;9.60;99.90;;;;;;5004091;28;20076;-66
2024/02/13 12:07:23;;;;;;;7.05;2.38;;;9.60;99.90;;;;;;4993907;28;20061;-66
2024/02/13 12:09:52;;;;;;;5.55;1.92;;;9.60;99.90;;;;;;5002782;28;20414;-66
2024/02/13 12:12:20;;;;;;;3.40;1.80;;;9.60;99.90;;;;;;4998284;28;20050;-66
2024/02/13 12:14:49;;;;;;;5.32;1.88;;;9.60;99.90;;;;;;4999348;28;20088;-66
2024/02/13 12:17:16;;;;;;;7.30;1.65;;;9.60;99.90;;;;;;4981950;28;20048;-66
2024/02/13 12:19:44;;;;;;;6.15;1.50;;;9.70;99.90;;;;;;4999856;28;20077;-66
2024/02/13 12:22:13;;;;;;;4.00;1.45;;;9.80;99.90;;;;;;5000575;28;20038;-66
2024/02/13 12:24:40;;;;;;;4.47;1.00;;;9.70;99.90;;;;;;4996628;28;20562;-66
2024/02/13 12:27:10;;;;;;;6.13;1.50;;;9.80;99.90;;;;;;5003173;28;20046;-66
2024/02/13 12:29:40;;;;;;;7.20;1.30;;;9.90;99.90;;;;;;5001923;28;20046;-66
2024/02/13 12:32:09;;;;;;;3.70;1.25;;;9.90;99.90;;;;;;5001836;28;20528;-66
2024/02/13 12:34:36;;;;;;;8.70;1.70;;;9.80;99.90;;;;;;5000965;28;20463;-66
2024/02/13 12:37:08;;;;;;;3.78;1.80;;;9.90;99.90;;;;;;5004861;28;20046;-66
2024/02/13 12:39:36;;;;;;;5.70;1.83;;;10.00;99.90;;;;;;5000835;28;20049;-66
2024/02/13 12:42:10;;;;;;;5.00;1.20;;;10.00;99.90;;;;;;5002242;28;20513;-66
2024/02/13 12:44:39;;;;;;;8.70;1.60;;;10.00;99.90;;;;;;4997588;28;20717;-66
2024/02/13 12:47:07;;;;;;;6.43;2.25;;;10.10;99.90;;;;;;5002276;28;20132;-66
2024/02/13 12:49:35;;;;;;;3.42;1.20;;;10.00;99.90;;;;;;5002372;28;20077;-66
2024/02/13 12:52:05;;;;;;;5.80;1.88;;;10.00;99.90;;;;;;5003527;28;20061;-66
2024/02/13 12:54:32;;;;;;;3.30;1.55;;;10.00;99.90;;;;;;5002574;28;20086;-66
2024/02/13 12:57:00;;;;;;;4.30;1.73;;;10.00;99.90;;;;;;5002065;28;20109;-66
2024/02/13 12:59:32;;;;;;;3.83;1.27;;;10.00;99.90;;;;;;4998879;28;20088;-66
2024/02/13 13:01:59;;;;;;;6.03;1.25;;;10.10;99.90;;;;;;5001373;28;20050;-66